Franklin Square, New York
Current Conditions -  °F | °C
As of 8:01 AM on Wednesday 22 Oct 2014 (Local Time) from KJFK Reporting Station
Thunderstorm Thunderstorm  
Wind Chill: 55°   Ceiling: 1300
Heat Index: 55°   Visibility: 10mi
Dew Point: 52°   Wind: 17mph
Humidity: 88%   Direction: 20°NNE
Pressure: 29.91"   Gusts: NA
Location:  40.71°N, 73.68°W
Report Text: KJFK 221201Z 02015KT 10SM -TSRA BKN013 BKN018 OVC028CB 13/11 A2991 RMK AO2 TSB01 OCNL LTGIC SE-SW TS SE-SW MOV W P0002 $
Loading
Personal Weather Stations






























Interactive Weather Map
Tropical Storm Tracking
New forecast layout! Learn more

10-Day Weather Forecast

Advertisements
Track Severe Weather on mobile